Terminal Aerodrome Forecast
Issued by NWS Cleveland, OH

Home | Current Version | Previous Version | Graphics & Text | Print | Product List | Glossary Off
Versions: 1 2 3 4 5 6 7 8 9 10 11 12 13 14 15 16 17 18 19 20 21 22 23 24

645
FTUS41 KCLE 170647 AAB
TAFERI
TAF AMD
KERI 170647Z 1707/1806 09004KT 6SM BR BKN012
      TEMPO 1707/1711 1SM BR
     FM171600 11007KT 6SM BR BKN022
     FM180300 18007KT 6SM BR VCSH OVC030=

USA.gov is the U.S. government's official web portal to all federal, state and local government web resources and services.